sensor_id;sensor_type;location;lat;lon;timestamp;P1;durP1;ratioP1;P2;durP2;ratioP2
49296;SDS011;35163;48.878;18.040;2023-06-04T00:02:10;7.78;;;3.40;;
49296;SDS011;35163;48.878;18.040;2023-06-04T00:04:37;7.80;;;3.58;;
49296;SDS011;35163;48.878;18.040;2023-06-04T00:07:04;8.57;;;3.65;;
49296;SDS011;35163;48.878;18.040;2023-06-04T00:09:31;10.25;;;4.20;;
49296;SDS011;35163;48.878;18.040;2023-06-04T00:11:58;19.23;;;5.82;;
49296;SDS011;35163;48.878;18.040;2023-06-04T00:14:25;20.20;;;8.10;;
49296;SDS011;35163;48.878;18.040;2023-06-04T00:16:52;16.17;;;6.07;;
49296;SDS011;35163;48.878;18.040;2023-06-04T00:19:19;11.85;;;3.92;;
49296;SDS011;35163;48.878;18.040;2023-06-04T00:21:45;10.57;;;4.35;;
49296;SDS011;35163;48.878;18.040;2023-06-04T00:24:12;13.13;;;3.75;;
49296;SDS011;35163;48.878;18.040;2023-06-04T00:26:39;10.93;;;4.28;;
49296;SDS011;35163;48.878;18.040;2023-06-04T00:29:06;10.25;;;3.83;;
49296;SDS011;35163;48.878;18.040;2023-06-04T00:31:32;11.68;;;3.72;;
49296;SDS011;35163;48.878;18.040;2023-06-04T00:33:59;11.88;;;3.97;;
49296;SDS011;35163;48.878;18.040;2023-06-04T00:36:26;13.57;;;4.25;;
49296;SDS011;35163;48.878;18.040;2023-06-04T00:38:53;8.85;;;3.63;;
49296;SDS011;35163;48.878;18.040;2023-06-04T00:41:19;13.45;;;3.78;;
49296;SDS011;35163;48.878;18.040;2023-06-04T00:43:46;8.82;;;3.88;;
49296;SDS011;35163;48.878;18.040;2023-06-04T00:46:23;7.90;;;3.67;;
49296;SDS011;35163;48.878;18.040;2023-06-04T00:48:52;13.15;;;4.10;;
49296;SDS011;35163;48.878;18.040;2023-06-04T00:51:19;9.57;;;3.53;;
49296;SDS011;35163;48.878;18.040;2023-06-04T00:53:50;10.32;;;3.85;;
49296;SDS011;35163;48.878;18.040;2023-06-04T00:56:20;10.40;;;3.50;;
49296;SDS011;35163;48.878;18.040;2023-06-04T00:58:47;10.27;;;3.53;;
49296;SDS011;35163;48.878;18.040;2023-06-04T01:01:25;8.35;;;3.28;;
49296;SDS011;35163;48.878;18.040;2023-06-04T01:06:31;10.77;;;3.70;;
49296;SDS011;35163;48.878;18.040;2023-06-04T01:09:04;10.38;;;3.95;;
49296;SDS011;35163;48.878;18.040;2023-06-04T01:11:35;11.85;;;3.75;;
49296;SDS011;35163;48.878;18.040;2023-06-04T01:14:03;11.10;;;3.78;;
49296;SDS011;35163;48.878;18.040;2023-06-04T01:16:52;9.18;;;3.35;;
49296;SDS011;35163;48.878;18.040;2023-06-04T01:22:10;13.05;;;4.00;;
49296;SDS011;35163;48.878;18.040;2023-06-04T01:24:49;9.80;;;4.10;;
49296;SDS011;35163;48.878;18.040;2023-06-04T01:27:22;10.80;;;3.78;;
49296;SDS011;35163;48.878;18.040;2023-06-04T01:29:49;13.35;;;4.00;;
49296;SDS011;35163;48.878;18.040;2023-06-04T01:32:17;11.02;;;4.25;;
49296;SDS011;35163;48.878;18.040;2023-06-04T01:34:44;11.25;;;3.75;;
49296;SDS011;35163;48.878;18.040;2023-06-04T01:37:12;7.53;;;3.28;;
49296;SDS011;35163;48.878;18.040;2023-06-04T01:39:39;11.20;;;4.00;;
49296;SDS011;35163;48.878;18.040;2023-06-04T01:42:07;9.27;;;3.63;;
49296;SDS011;35163;48.878;18.040;2023-06-04T01:44:34;8.68;;;3.75;;
49296;SDS011;35163;48.878;18.040;2023-06-04T01:47:01;12.00;;;4.00;;
49296;SDS011;35163;48.878;18.040;2023-06-04T01:49:27;7.70;;;4.05;;
49296;SDS011;35163;48.878;18.040;2023-06-04T01:51:54;14.98;;;3.95;;
49296;SDS011;35163;48.878;18.040;2023-06-04T01:54:22;11.45;;;3.70;;
49296;SDS011;35163;48.878;18.040;2023-06-04T01:56:49;9.48;;;3.60;;
49296;SDS011;35163;48.878;18.040;2023-06-04T01:59:15;9.20;;;3.42;;
49296;SDS011;35163;48.878;18.040;2023-06-04T02:01:42;10.48;;;4.30;;
49296;SDS011;35163;48.878;18.040;2023-06-04T02:04:09;9.57;;;3.38;;
49296;SDS011;35163;48.878;18.040;2023-06-04T02:06:36;7.97;;;3.78;;
49296;SDS011;35163;48.878;18.040;2023-06-04T02:09:03;9.30;;;3.50;;
49296;SDS011;35163;48.878;18.040;2023-06-04T02:11:30;8.25;;;3.70;;
49296;SDS011;35163;48.878;18.040;2023-06-04T02:13:57;11.05;;;3.63;;
49296;SDS011;35163;48.878;18.040;2023-06-04T02:16:23;9.25;;;3.42;;
49296;SDS011;35163;48.878;18.040;2023-06-04T02:18:52;12.55;;;4.07;;
49296;SDS011;35163;48.878;18.040;2023-06-04T02:21:19;10.10;;;3.60;;
49296;SDS011;35163;48.878;18.040;2023-06-04T02:23:45;10.30;;;4.00;;
49296;SDS011;35163;48.878;18.040;2023-06-04T02:26:12;11.20;;;4.00;;
49296;SDS011;35163;48.878;18.040;2023-06-04T02:28:39;9.32;;;3.67;;
49296;SDS011;35163;48.878;18.040;2023-06-04T02:31:06;10.75;;;3.88;;
49296;SDS011;35163;48.878;18.040;2023-06-04T02:33:33;7.30;;;3.55;;
49296;SDS011;35163;48.878;18.040;2023-06-04T02:36:00;13.63;;;3.55;;
49296;SDS011;35163;48.878;18.040;2023-06-04T02:38:27;9.73;;;3.80;;
49296;SDS011;35163;48.878;18.040;2023-06-04T02:40:54;8.73;;;3.17;;
49296;SDS011;35163;48.878;18.040;2023-06-04T02:43:20;13.38;;;4.18;;
49296;SDS011;35163;48.878;18.040;2023-06-04T02:45:47;13.68;;;3.50;;
49296;SDS011;35163;48.878;18.040;2023-06-04T02:48:14;7.90;;;3.50;;
49296;SDS011;35163;48.878;18.040;2023-06-04T02:50:41;13.32;;;4.00;;
49296;SDS011;35163;48.878;18.040;2023-06-04T02:53:08;10.32;;;4.18;;
49296;SDS011;35163;48.878;18.040;2023-06-04T02:55:35;11.18;;;4.05;;
49296;SDS011;35163;48.878;18.040;2023-06-04T02:58:04;10.55;;;4.38;;
49296;SDS011;35163;48.878;18.040;2023-06-04T03:00:35;14.32;;;3.63;;
49296;SDS011;35163;48.878;18.040;2023-06-04T03:03:01;9.05;;;3.78;;
49296;SDS011;35163;48.878;18.040;2023-06-04T03:05:29;9.98;;;3.50;;
49296;SDS011;35163;48.878;18.040;2023-06-04T03:08:00;11.90;;;3.42;;
49296;SDS011;35163;48.878;18.040;2023-06-04T03:10:29;11.13;;;3.67;;
49296;SDS011;35163;48.878;18.040;2023-06-04T03:12:57;9.65;;;3.58;;
49296;SDS011;35163;48.878;18.040;2023-06-04T03:15:24;12.52;;;4.00;;
49296;SDS011;35163;48.878;18.040;2023-06-04T03:17:50;8.63;;;3.83;;
49296;SDS011;35163;48.878;18.040;2023-06-04T03:20:17;8.77;;;3.70;;
49296;SDS011;35163;48.878;18.040;2023-06-04T03:22:44;9.07;;;3.85;;
49296;SDS011;35163;48.878;18.040;2023-06-04T03:25:11;10.32;;;3.38;;
49296;SDS011;35163;48.878;18.040;2023-06-04T03:27:37;9.32;;;3.45;;
49296;SDS011;35163;48.878;18.040;2023-06-04T03:30:04;12.13;;;3.85;;
49296;SDS011;35163;48.878;18.040;2023-06-04T03:32:32;12.73;;;4.03;;
49296;SDS011;35163;48.878;18.040;2023-06-04T03:34:59;8.00;;;3.97;;
49296;SDS011;35163;48.878;18.040;2023-06-04T03:37:26;12.65;;;4.15;;
49296;SDS011;35163;48.878;18.040;2023-06-04T03:39:54;15.10;;;3.60;;
49296;SDS011;35163;48.878;18.040;2023-06-04T03:42:20;11.30;;;4.00;;
49296;SDS011;35163;48.878;18.040;2023-06-04T03:44:47;8.65;;;3.85;;
49296;SDS011;35163;48.878;18.040;2023-06-04T03:47:14;7.18;;;3.55;;
49296;SDS011;35163;48.878;18.040;2023-06-04T03:49:40;13.85;;;4.28;;
49296;SDS011;35163;48.878;18.040;2023-06-04T03:52:07;11.13;;;4.07;;
49296;SDS011;35163;48.878;18.040;2023-06-04T03:54:36;8.40;;;3.80;;
49296;SDS011;35163;48.878;18.040;2023-06-04T03:57:03;10.70;;;4.13;;
49296;SDS011;35163;48.878;18.040;2023-06-04T03:59:30;9.00;;;4.05;;
49296;SDS011;35163;48.878;18.040;2023-06-04T04:01:57;8.38;;;3.90;;
49296;SDS011;35163;48.878;18.040;2023-06-04T04:04:23;9.57;;;4.40;;
49296;SDS011;35163;48.878;18.040;2023-06-04T04:06:50;8.88;;;3.72;;
49296;SDS011;35163;48.878;18.040;2023-06-04T04:09:17;8.77;;;4.38;;
49296;SDS011;35163;48.878;18.040;2023-06-04T04:11:44;12.88;;;3.97;;
49296;SDS011;35163;48.878;18.040;2023-06-04T04:14:11;11.00;;;4.28;;
49296;SDS011;35163;48.878;18.040;2023-06-04T04:16:37;8.40;;;3.88;;
49296;SDS011;35163;48.878;18.040;2023-06-04T04:19:04;11.48;;;3.78;;
49296;SDS011;35163;48.878;18.040;2023-06-04T04:21:34;10.57;;;4.07;;
49296;SDS011;35163;48.878;18.040;2023-06-04T04:24:03;13.90;;;4.15;;
49296;SDS011;35163;48.878;18.040;2023-06-04T04:26:30;10.18;;;3.72;;
49296;SDS011;35163;48.878;18.040;2023-06-04T04:28:57;11.35;;;4.22;;
49296;SDS011;35163;48.878;18.040;2023-06-04T04:31:24;11.07;;;3.90;;
49296;SDS011;35163;48.878;18.040;2023-06-04T04:33:52;8.63;;;3.75;;
49296;SDS011;35163;48.878;18.040;2023-06-04T04:36:21;12.88;;;3.88;;
49296;SDS011;35163;48.878;18.040;2023-06-04T04:38:50;10.85;;;4.07;;
49296;SDS011;35163;48.878;18.040;2023-06-04T04:41:21;9.88;;;3.97;;
49296;SDS011;35163;48.878;18.040;2023-06-04T04:43:49;9.93;;;3.60;;
49296;SDS011;35163;48.878;18.040;2023-06-04T04:46:18;8.40;;;3.78;;
49296;SDS011;35163;48.878;18.040;2023-06-04T04:48:45;10.02;;;3.78;;
49296;SDS011;35163;48.878;18.040;2023-06-04T04:51:12;8.07;;;3.63;;
49296;SDS011;35163;48.878;18.040;2023-06-04T04:53:41;7.00;;;3.35;;
49296;SDS011;35163;48.878;18.040;2023-06-04T04:56:09;13.60;;;3.10;;
49296;SDS011;35163;48.878;18.040;2023-06-04T04:58:38;12.05;;;3.58;;
49296;SDS011;35163;48.878;18.040;2023-06-04T05:01:05;6.80;;;3.13;;
49296;SDS011;35163;48.878;18.040;2023-06-04T05:03:32;7.53;;;3.28;;
49296;SDS011;35163;48.878;18.040;2023-06-04T05:06:01;8.20;;;3.20;;
49296;SDS011;35163;48.878;18.040;2023-06-04T05:08:28;9.25;;;3.80;;
49296;SDS011;35163;48.878;18.040;2023-06-04T05:10:54;9.05;;;3.58;;
49296;SDS011;35163;48.878;18.040;2023-06-04T05:13:21;6.93;;;2.90;;
49296;SDS011;35163;48.878;18.040;2023-06-04T05:15:49;7.25;;;3.22;;
49296;SDS011;35163;48.878;18.040;2023-06-04T05:18:19;10.10;;;3.03;;
49296;SDS011;35163;48.878;18.040;2023-06-04T05:20:55;12.40;;;3.25;;
49296;SDS011;35163;48.878;18.040;2023-06-04T05:23:22;8.18;;;3.33;;
49296;SDS011;35163;48.878;18.040;2023-06-04T05:25:48;7.47;;;3.10;;
49296;SDS011;35163;48.878;18.040;2023-06-04T05:28:15;8.82;;;3.25;;
49296;SDS011;35163;48.878;18.040;2023-06-04T05:30:42;6.90;;;2.90;;
49296;SDS011;35163;48.878;18.040;2023-06-04T05:33:10;7.15;;;2.67;;
49296;SDS011;35163;48.878;18.040;2023-06-04T05:35:49;12.68;;;3.50;;
49296;SDS011;35163;48.878;18.040;2023-06-04T05:38:15;6.88;;;2.85;;
49296;SDS011;35163;48.878;18.040;2023-06-04T05:40:43;7.82;;;3.05;;
49296;SDS011;35163;48.878;18.040;2023-06-04T05:43:10;9.05;;;3.05;;
49296;SDS011;35163;48.878;18.040;2023-06-04T05:45:37;8.63;;;3.25;;
49296;SDS011;35163;48.878;18.040;2023-06-04T05:48:04;8.60;;;2.83;;
49296;SDS011;35163;48.878;18.040;2023-06-04T05:50:32;13.45;;;3.90;;
49296;SDS011;35163;48.878;18.040;2023-06-04T05:52:58;12.18;;;3.47;;
49296;SDS011;35163;48.878;18.040;2023-06-04T05:55:25;9.30;;;3.03;;
49296;SDS011;35163;48.878;18.040;2023-06-04T05:57:51;10.25;;;3.10;;
49296;SDS011;35163;48.878;18.040;2023-06-04T06:00:18;7.60;;;2.83;;
49296;SDS011;35163;48.878;18.040;2023-06-04T06:02:45;8.82;;;3.10;;
49296;SDS011;35163;48.878;18.040;2023-06-04T06:05:15;7.28;;;2.97;;
49296;SDS011;35163;48.878;18.040;2023-06-04T06:07:44;8.27;;;2.92;;
49296;SDS011;35163;48.878;18.040;2023-06-04T06:10:11;11.23;;;3.40;;
49296;SDS011;35163;48.878;18.040;2023-06-04T06:12:39;7.07;;;2.80;;
49296;SDS011;35163;48.878;18.040;2023-06-04T06:15:06;6.65;;;2.40;;
49296;SDS011;35163;48.878;18.040;2023-06-04T06:17:37;9.57;;;2.72;;
49296;SDS011;35163;48.878;18.040;2023-06-04T06:20:05;8.18;;;2.63;;
49296;SDS011;35163;48.878;18.040;2023-06-04T06:22:35;6.18;;;2.60;;
49296;SDS011;35163;48.878;18.040;2023-06-04T06:25:02;11.48;;;2.90;;
49296;SDS011;35163;48.878;18.040;2023-06-04T06:27:31;6.35;;;2.53;;
49296;SDS011;35163;48.878;18.040;2023-06-04T06:29:58;8.13;;;2.47;;
49296;SDS011;35163;48.878;18.040;2023-06-04T06:32:25;10.15;;;3.83;;
49296;SDS011;35163;48.878;18.040;2023-06-04T06:34:52;8.35;;;2.90;;
49296;SDS011;35163;48.878;18.040;2023-06-04T06:37:19;6.65;;;2.22;;
49296;SDS011;35163;48.878;18.040;2023-06-04T06:39:48;5.10;;;2.40;;
49296;SDS011;35163;48.878;18.040;2023-06-04T06:42:14;10.38;;;2.90;;
49296;SDS011;35163;48.878;18.040;2023-06-04T06:44:46;6.65;;;2.60;;
49296;SDS011;35163;48.878;18.040;2023-06-04T06:47:13;5.93;;;2.47;;
49296;SDS011;35163;48.878;18.040;2023-06-04T06:49:40;5.15;;;1.95;;
49296;SDS011;35163;48.878;18.040;2023-06-04T06:52:07;11.27;;;2.53;;
49296;SDS011;35163;48.878;18.040;2023-06-04T06:54:34;8.40;;;2.30;;
49296;SDS011;35163;48.878;18.040;2023-06-04T06:57:00;8.75;;;2.50;;
49296;SDS011;35163;48.878;18.040;2023-06-04T06:59:29;5.22;;;2.13;;
49296;SDS011;35163;48.878;18.040;2023-06-04T07:01:58;4.03;;;2.00;;
49296;SDS011;35163;48.878;18.040;2023-06-04T07:04:25;4.22;;;2.17;;
49296;SDS011;35163;48.878;18.040;2023-06-04T07:06:54;7.55;;;2.20;;
49296;SDS011;35163;48.878;18.040;2023-06-04T07:09:23;5.15;;;1.90;;
49296;SDS011;35163;48.878;18.040;2023-06-04T07:11:50;5.45;;;2.20;;
49296;SDS011;35163;48.878;18.040;2023-06-04T07:14:17;5.47;;;1.67;;
49296;SDS011;35163;48.878;18.040;2023-06-04T07:16:43;3.78;;;1.73;;
49296;SDS011;35163;48.878;18.040;2023-06-04T07:19:10;4.63;;;2.00;;
49296;SDS011;35163;48.878;18.040;2023-06-04T07:21:37;6.25;;;2.05;;
49296;SDS011;35163;48.878;18.040;2023-06-04T07:24:04;4.32;;;2.08;;
49296;SDS011;35163;48.878;18.040;2023-06-04T07:26:31;4.15;;;1.90;;
49296;SDS011;35163;48.878;18.040;2023-06-04T07:29:00;4.95;;;2.20;;
49296;SDS011;35163;48.878;18.040;2023-06-04T07:31:29;4.07;;;1.77;;
49296;SDS011;35163;48.878;18.040;2023-06-04T07:33:56;5.85;;;2.00;;
49296;SDS011;35163;48.878;18.040;2023-06-04T07:36:23;4.63;;;2.13;;
49296;SDS011;35163;48.878;18.040;2023-06-04T07:38:49;6.35;;;2.40;;
49296;SDS011;35163;48.878;18.040;2023-06-04T07:41:16;5.47;;;2.17;;
49296;SDS011;35163;48.878;18.040;2023-06-04T07:43:43;6.28;;;1.80;;
49296;SDS011;35163;48.878;18.040;2023-06-04T07:46:10;4.25;;;2.00;;
49296;SDS011;35163;48.878;18.040;2023-06-04T07:48:37;3.88;;;1.80;;
49296;SDS011;35163;48.878;18.040;2023-06-04T07:51:04;3.95;;;1.67;;
49296;SDS011;35163;48.878;18.040;2023-06-04T07:53:31;5.05;;;1.95;;
49296;SDS011;35163;48.878;18.040;2023-06-04T07:55:58;5.38;;;2.13;;
49296;SDS011;35163;48.878;18.040;2023-06-04T07:58:24;4.30;;;2.00;;
49296;SDS011;35163;48.878;18.040;2023-06-04T08:00:53;3.38;;;1.70;;
49296;SDS011;35163;48.878;18.040;2023-06-04T08:03:23;9.65;;;2.25;;
49296;SDS011;35163;48.878;18.040;2023-06-04T08:05:51;7.90;;;2.13;;
49296;SDS011;35163;48.878;18.040;2023-06-04T08:08:17;4.22;;;1.67;;
49296;SDS011;35163;48.878;18.040;2023-06-04T08:10:44;15.85;;;2.30;;
49296;SDS011;35163;48.878;18.040;2023-06-04T08:13:11;5.10;;;1.40;;
49296;SDS011;35163;48.878;18.040;2023-06-04T08:15:38;5.65;;;2.03;;
49296;SDS011;35163;48.878;18.040;2023-06-04T08:18:05;5.53;;;2.10;;
49296;SDS011;35163;48.878;18.040;2023-06-04T08:20:32;5.35;;;1.90;;
49296;SDS011;35163;48.878;18.040;2023-06-04T08:22:59;4.30;;;1.90;;
49296;SDS011;35163;48.878;18.040;2023-06-04T08:25:25;4.25;;;1.65;;
49296;SDS011;35163;48.878;18.040;2023-06-04T08:27:52;4.05;;;1.80;;
49296;SDS011;35163;48.878;18.040;2023-06-04T08:30:19;5.35;;;1.75;;
49296;SDS011;35163;48.878;18.040;2023-06-04T08:32:46;3.70;;;1.73;;
49296;SDS011;35163;48.878;18.040;2023-06-04T08:35:13;4.63;;;1.80;;
49296;SDS011;35163;48.878;18.040;2023-06-04T08:37:40;4.03;;;2.00;;
49296;SDS011;35163;48.878;18.040;2023-06-04T08:40:06;9.93;;;2.30;;
49296;SDS011;35163;48.878;18.040;2023-06-04T08:42:40;4.63;;;1.80;;
49296;SDS011;35163;48.878;18.040;2023-06-04T08:45:12;5.30;;;2.20;;
49296;SDS011;35163;48.878;18.040;2023-06-04T08:47:43;5.15;;;1.83;;
49296;SDS011;35163;48.878;18.040;2023-06-04T08:50:14;5.78;;;1.90;;
49296;SDS011;35163;48.878;18.040;2023-06-04T08:52:43;3.95;;;2.10;;
49296;SDS011;35163;48.878;18.040;2023-06-04T08:55:13;6.80;;;2.70;;
49296;SDS011;35163;48.878;18.040;2023-06-04T08:57:40;4.50;;;2.20;;
49296;SDS011;35163;48.878;18.040;2023-06-04T09:00:07;6.00;;;1.98;;
49296;SDS011;35163;48.878;18.040;2023-06-04T09:02:38;4.80;;;2.08;;
49296;SDS011;35163;48.878;18.040;2023-06-04T09:05:05;5.40;;;2.08;;
49296;SDS011;35163;48.878;18.040;2023-06-04T09:07:36;10.30;;;2.08;;
49296;SDS011;35163;48.878;18.040;2023-06-04T09:10:04;7.45;;;2.03;;
49296;SDS011;35163;48.878;18.040;2023-06-04T09:12:41;3.97;;;1.75;;
49296;SDS011;35163;48.878;18.040;2023-06-04T09:15:10;4.43;;;2.10;;
49296;SDS011;35163;48.878;18.040;2023-06-04T09:17:37;4.78;;;1.92;;
49296;SDS011;35163;48.878;18.040;2023-06-04T09:20:04;3.88;;;1.73;;
49296;SDS011;35163;48.878;18.040;2023-06-04T09:22:36;11.05;;;3.28;;
49296;SDS011;35163;48.878;18.040;2023-06-04T09:25:06;3.70;;;1.80;;
49296;SDS011;35163;48.878;18.040;2023-06-04T09:27:44;5.65;;;1.70;;
49296;SDS011;35163;48.878;18.040;2023-06-04T09:30:11;6.90;;;1.98;;
49296;SDS011;35163;48.878;18.040;2023-06-04T09:32:38;5.85;;;2.03;;
49296;SDS011;35163;48.878;18.040;2023-06-04T09:35:14;5.65;;;1.88;;
49296;SDS011;35163;48.878;18.040;2023-06-04T09:37:53;7.90;;;1.48;;
49296;SDS011;35163;48.878;18.040;2023-06-04T09:40:22;6.07;;;1.77;;
49296;SDS011;35163;48.878;18.040;2023-06-04T09:42:49;4.20;;;1.65;;
49296;SDS011;35163;48.878;18.040;2023-06-04T09:45:28;3.33;;;1.55;;
49296;SDS011;35163;48.878;18.040;2023-06-04T09:47:55;7.45;;;1.80;;
49296;SDS011;35163;48.878;18.040;2023-06-04T09:50:26;3.75;;;1.50;;
49296;SDS011;35163;48.878;18.040;2023-06-04T09:52:54;7.10;;;2.15;;
49296;SDS011;35163;48.878;18.040;2023-06-04T09:55:21;4.13;;;1.55;;
49296;SDS011;35163;48.878;18.040;2023-06-04T09:57:49;4.75;;;2.00;;
49296;SDS011;35163;48.878;18.040;2023-06-04T10:00:18;4.38;;;1.73;;
49296;SDS011;35163;48.878;18.040;2023-06-04T10:02:47;3.58;;;1.95;;
49296;SDS011;35163;48.878;18.040;2023-06-04T10:05:15;5.30;;;1.83;;
49296;SDS011;35163;48.878;18.040;2023-06-04T10:07:45;5.53;;;1.65;;
49296;SDS011;35163;48.878;18.040;2023-06-04T10:10:16;3.55;;;1.77;;
49296;SDS011;35163;48.878;18.040;2023-06-04T10:12:45;2.60;;;1.60;;
49296;SDS011;35163;48.878;18.040;2023-06-04T10:15:16;6.40;;;1.95;;
49296;SDS011;35163;48.878;18.040;2023-06-04T10:17:43;2.90;;;1.48;;
49296;SDS011;35163;48.878;18.040;2023-06-04T10:20:11;4.07;;;1.88;;
49296;SDS011;35163;48.878;18.040;2023-06-04T10:22:38;5.90;;;1.67;;
49296;SDS011;35163;48.878;18.040;2023-06-04T10:25:05;6.30;;;1.70;;
49296;SDS011;35163;48.878;18.040;2023-06-04T10:27:36;5.03;;;1.67;;
49296;SDS011;35163;48.878;18.040;2023-06-04T10:30:04;4.38;;;1.35;;
49296;SDS011;35163;48.878;18.040;2023-06-04T10:32:31;6.80;;;1.67;;
49296;SDS011;35163;48.878;18.040;2023-06-04T10:34:58;8.90;;;1.50;;
49296;SDS011;35163;48.878;18.040;2023-06-04T10:37:25;4.03;;;1.80;;
49296;SDS011;35163;48.878;18.040;2023-06-04T10:39:53;4.90;;;1.63;;
49296;SDS011;35163;48.878;18.040;2023-06-04T10:42:21;3.95;;;1.60;;
49296;SDS011;35163;48.878;18.040;2023-06-04T10:44:52;3.28;;;1.30;;
49296;SDS011;35163;48.878;18.040;2023-06-04T10:47:27;2.60;;;1.35;;
49296;SDS011;35163;48.878;18.040;2023-06-04T10:50:06;2.88;;;1.20;;
49296;SDS011;35163;48.878;18.040;2023-06-04T10:52:38;3.85;;;1.52;;
49296;SDS011;35163;48.878;18.040;2023-06-04T10:55:06;4.03;;;1.92;;
49296;SDS011;35163;48.878;18.040;2023-06-04T10:57:34;4.90;;;1.40;;
49296;SDS011;35163;48.878;18.040;2023-06-04T11:00:01;3.42;;;1.45;;
49296;SDS011;35163;48.878;18.040;2023-06-04T11:02:32;4.53;;;1.80;;
49296;SDS011;35163;48.878;18.040;2023-06-04T11:05:02;5.10;;;1.80;;
49296;SDS011;35163;48.878;18.040;2023-06-04T11:07:45;5.65;;;1.60;;
49296;SDS011;35163;48.878;18.040;2023-06-04T11:10:14;2.47;;;1.45;;
49296;SDS011;35163;48.878;18.040;2023-06-04T11:12:45;10.05;;;2.05;;
49296;SDS011;35163;48.878;18.040;2023-06-04T11:15:19;5.80;;;1.70;;
49296;SDS011;35163;48.878;18.040;2023-06-04T11:17:49;5.25;;;1.85;;
49296;SDS011;35163;48.878;18.040;2023-06-04T11:22:51;6.68;;;1.80;;
49296;SDS011;35163;48.878;18.040;2023-06-04T11:25:18;5.57;;;2.10;;
49296;SDS011;35163;48.878;18.040;2023-06-04T11:27:45;2.67;;;1.40;;
49296;SDS011;35163;48.878;18.040;2023-06-04T11:30:13;3.75;;;1.60;;
49296;SDS011;35163;48.878;18.040;2023-06-04T11:32:40;2.83;;;1.67;;
49296;SDS011;35163;48.878;18.040;2023-06-04T11:35:07;3.60;;;1.63;;
49296;SDS011;35163;48.878;18.040;2023-06-04T11:37:34;3.67;;;1.75;;
49296;SDS011;35163;48.878;18.040;2023-06-04T11:40:01;4.47;;;1.55;;
49296;SDS011;35163;48.878;18.040;2023-06-04T11:42:31;5.75;;;2.15;;
49296;SDS011;35163;48.878;18.040;2023-06-04T11:44:58;6.43;;;2.20;;
49296;SDS011;35163;48.878;18.040;2023-06-04T11:47:25;6.10;;;1.60;;
49296;SDS011;35163;48.878;18.040;2023-06-04T11:49:55;6.82;;;2.10;;
49296;SDS011;35163;48.878;18.040;2023-06-04T11:52:22;6.18;;;2.00;;
49296;SDS011;35163;48.878;18.040;2023-06-04T11:54:50;4.25;;;1.80;;
49296;SDS011;35163;48.878;18.040;2023-06-04T11:57:17;9.48;;;2.13;;
49296;SDS011;35163;48.878;18.040;2023-06-04T11:59:44;3.42;;;1.58;;
49296;SDS011;35163;48.878;18.040;2023-06-04T12:02:11;7.63;;;1.88;;
49296;SDS011;35163;48.878;18.040;2023-06-04T12:04:38;6.07;;;1.90;;
49296;SDS011;35163;48.878;18.040;2023-06-04T12:07:05;7.78;;;2.20;;
49296;SDS011;35163;48.878;18.040;2023-06-04T12:09:33;4.32;;;1.80;;
49296;SDS011;35163;48.878;18.040;2023-06-04T12:12:05;5.13;;;2.00;;
49296;SDS011;35163;48.878;18.040;2023-06-04T12:14:33;9.75;;;2.60;;
49296;SDS011;35163;48.878;18.040;2023-06-04T12:17:01;8.82;;;2.13;;
49296;SDS011;35163;48.878;18.040;2023-06-04T12:19:32;5.35;;;1.95;;
49296;SDS011;35163;48.878;18.040;2023-06-04T12:22:04;4.30;;;2.00;;
49296;SDS011;35163;48.878;18.040;2023-06-04T12:24:32;5.07;;;1.98;;
49296;SDS011;35163;48.878;18.040;2023-06-04T12:27:06;9.88;;;2.22;;
49296;SDS011;35163;48.878;18.040;2023-06-04T12:29:35;5.65;;;1.67;;
49296;SDS011;35163;48.878;18.040;2023-06-04T12:32:06;6.43;;;2.03;;
49296;SDS011;35163;48.878;18.040;2023-06-04T12:34:37;5.88;;;2.08;;
49296;SDS011;35163;48.878;18.040;2023-06-04T12:37:05;5.47;;;2.10;;
49296;SDS011;35163;48.878;18.040;2023-06-04T12:39:34;4.65;;;1.60;;
49296;SDS011;35163;48.878;18.040;2023-06-04T12:42:03;7.78;;;2.22;;
49296;SDS011;35163;48.878;18.040;2023-06-04T12:44:33;4.13;;;1.77;;
49296;SDS011;35163;48.878;18.040;2023-06-04T12:47:01;7.25;;;1.90;;
49296;SDS011;35163;48.878;18.040;2023-06-04T12:49:28;6.13;;;2.15;;
49296;SDS011;35163;48.878;18.040;2023-06-04T12:51:55;7.18;;;1.73;;
49296;SDS011;35163;48.878;18.040;2023-06-04T12:54:22;7.55;;;2.22;;
49296;SDS011;35163;48.878;18.040;2023-06-04T12:56:49;4.40;;;1.70;;
49296;SDS011;35163;48.878;18.040;2023-06-04T12:59:16;4.70;;;1.83;;
49296;SDS011;35163;48.878;18.040;2023-06-04T13:01:43;7.38;;;2.20;;
49296;SDS011;35163;48.878;18.040;2023-06-04T13:04:10;6.30;;;2.50;;
49296;SDS011;35163;48.878;18.040;2023-06-04T13:06:37;7.10;;;2.63;;
49296;SDS011;35163;48.878;18.040;2023-06-04T13:09:04;7.53;;;1.70;;
49296;SDS011;35163;48.878;18.040;2023-06-04T13:11:38;5.13;;;2.22;;
49296;SDS011;35163;48.878;18.040;2023-06-04T13:14:06;7.82;;;2.15;;
49296;SDS011;35163;48.878;18.040;2023-06-04T13:16:33;7.60;;;2.03;;
49296;SDS011;35163;48.878;18.040;2023-06-04T13:19:00;4.13;;;2.05;;
49296;SDS011;35163;48.878;18.040;2023-06-04T13:21:27;13.35;;;2.05;;
49296;SDS011;35163;48.878;18.040;2023-06-04T13:23:54;11.98;;;2.45;;
49296;SDS011;35163;48.878;18.040;2023-06-04T13:26:22;5.70;;;2.25;;
49296;SDS011;35163;48.878;18.040;2023-06-04T13:28:49;6.20;;;2.25;;
49296;SDS011;35163;48.878;18.040;2023-06-04T13:31:16;5.57;;;2.33;;
49296;SDS011;35163;48.878;18.040;2023-06-04T13:33:42;6.22;;;2.40;;
49296;SDS011;35163;48.878;18.040;2023-06-04T13:36:09;8.52;;;2.50;;
49296;SDS011;35163;48.878;18.040;2023-06-04T13:38:36;4.90;;;2.20;;
49296;SDS011;35163;48.878;18.040;2023-06-04T13:41:06;6.47;;;2.15;;
49296;SDS011;35163;48.878;18.040;2023-06-04T13:43:35;5.38;;;2.47;;
49296;SDS011;35163;48.878;18.040;2023-06-04T13:46:03;4.60;;;2.25;;
49296;SDS011;35163;48.878;18.040;2023-06-04T13:48:30;5.38;;;1.92;;
49296;SDS011;35163;48.878;18.040;2023-06-04T13:50:56;7.05;;;2.40;;
49296;SDS011;35163;48.878;18.040;2023-06-04T13:53:23;3.83;;;2.28;;
49296;SDS011;35163;48.878;18.040;2023-06-04T13:55:50;8.57;;;2.20;;
49296;SDS011;35163;48.878;18.040;2023-06-04T13:58:24;3.93;;;2.10;;
49296;SDS011;35163;48.878;18.040;2023-06-04T14:00:54;5.35;;;2.50;;
49296;SDS011;35163;48.878;18.040;2023-06-04T14:03:21;8.75;;;2.30;;
49296;SDS011;35163;48.878;18.040;2023-06-04T14:05:48;7.57;;;2.72;;
49296;SDS011;35163;48.878;18.040;2023-06-04T14:08:15;7.15;;;2.83;;
49296;SDS011;35163;48.878;18.040;2023-06-04T14:10:44;6.53;;;2.97;;
49296;SDS011;35163;48.878;18.040;2023-06-04T14:13:11;9.77;;;2.88;;
49296;SDS011;35163;48.878;18.040;2023-06-04T14:15:37;7.15;;;2.90;;
49296;SDS011;35163;48.878;18.040;2023-06-04T14:18:04;7.95;;;2.88;;
49296;SDS011;35163;48.878;18.040;2023-06-04T14:20:31;7.13;;;2.53;;
49296;SDS011;35163;48.878;18.040;2023-06-04T14:22:58;7.55;;;3.15;;
49296;SDS011;35163;48.878;18.040;2023-06-04T14:25:28;4.50;;;2.50;;
49296;SDS011;35163;48.878;18.040;2023-06-04T14:27:54;5.63;;;2.63;;
49296;SDS011;35163;48.878;18.040;2023-06-04T14:30:21;6.65;;;2.95;;
49296;SDS011;35163;48.878;18.040;2023-06-04T14:32:48;7.85;;;3.10;;
49296;SDS011;35163;48.878;18.040;2023-06-04T14:35:15;10.50;;;3.10;;
49296;SDS011;35163;48.878;18.040;2023-06-04T14:37:44;8.70;;;3.17;;
49296;SDS011;35163;48.878;18.040;2023-06-04T14:40:11;6.13;;;2.65;;
49296;SDS011;35163;48.878;18.040;2023-06-04T14:42:38;9.85;;;2.90;;
49296;SDS011;35163;48.878;18.040;2023-06-04T14:45:05;8.55;;;3.58;;